createdAt,value
2017-12-04T00:00:14.754Z,0.30
2017-12-04T00:02:42.286Z,0.40
2017-12-04T00:05:10.103Z,0.30
2017-12-04T00:07:37.682Z,0.40
2017-12-04T00:10:05.189Z,0.40
2017-12-04T00:12:32.696Z,0.50
2017-12-04T00:15:00.251Z,0.50
2017-12-04T00:17:27.758Z,0.50
2017-12-04T00:19:55.272Z,0.50
2017-12-04T00:22:22.831Z,0.50
2017-12-04T00:24:50.344Z,0.40
2017-12-04T00:27:17.866Z,0.30
2017-12-04T00:29:45.411Z,0.30
2017-12-04T00:32:12.927Z,0.20
2017-12-04T00:34:41.123Z,0.20
2017-12-04T00:37:09.356Z,0.10
2017-12-04T00:39:38.496Z,0.10
2017-12-04T00:42:06.002Z,0.00
2017-12-04T00:44:33.573Z,0.00
2017-12-04T00:47:01.082Z,0.00
2017-12-04T00:49:28.595Z,0.10
2017-12-04T00:51:56.918Z,0.20
2017-12-04T00:54:24.430Z,0.10
2017-12-04T00:56:51.944Z,0.10
2017-12-04T00:59:19.510Z,0.30
2017-12-04T01:01:47.019Z,0.30
2017-12-04T01:04:14.531Z,0.20
2017-12-04T01:06:42.730Z,0.30
2017-12-04T01:09:10.238Z,0.30
2017-12-04T01:11:37.761Z,0.30
2017-12-04T01:14:05.435Z,0.30
2017-12-04T01:16:33.350Z,0.40
2017-12-04T01:19:00.960Z,0.50
2017-12-04T01:21:28.426Z,0.50
2017-12-04T01:23:56.548Z,0.50
2017-12-04T01:26:24.083Z,0.50
2017-12-04T01:28:51.602Z,0.50
2017-12-04T01:31:19.114Z,0.50
2017-12-04T01:33:47.240Z,0.50
2017-12-04T01:36:14.978Z,0.50
2017-12-04T01:38:42.487Z,0.50
2017-12-04T01:41:10.356Z,0.40
2017-12-04T01:43:37.878Z,0.50
2017-12-04T01:46:05.382Z,0.50
2017-12-04T01:48:32.964Z,0.60
2017-12-04T01:51:01.023Z,0.60
2017-12-04T01:53:29.063Z,0.60
2017-12-04T01:55:56.587Z,0.70
2017-12-04T01:58:24.094Z,0.70
2017-12-04T02:00:51.658Z,0.60
2017-12-04T02:03:19.170Z,0.60
2017-12-04T02:05:46.723Z,0.50
2017-12-04T02:08:14.231Z,0.50
2017-12-04T02:10:41.750Z,0.60
2017-12-04T02:13:09.303Z,0.70
2017-12-04T02:15:36.839Z,0.70
2017-12-04T02:18:04.654Z,0.70
2017-12-04T02:20:32.243Z,0.80
2017-12-04T02:23:00.064Z,0.80
2017-12-04T02:25:27.888Z,0.80
2017-12-04T02:27:55.449Z,0.80
2017-12-04T02:30:24.786Z,0.70
2017-12-04T02:32:52.442Z,0.70
2017-12-04T02:35:19.988Z,0.80
2017-12-04T02:37:47.505Z,0.80
2017-12-04T02:40:15.022Z,0.80
2017-12-04T02:42:42.588Z,0.90
2017-12-04T02:45:10.107Z,0.90
2017-12-04T02:47:37.623Z,0.80
2017-12-04T02:50:05.212Z,0.80
2017-12-04T02:52:32.714Z,0.80
2017-12-04T02:55:00.371Z,0.80
2017-12-04T02:57:27.935Z,0.80
2017-12-04T02:59:55.447Z,0.80
2017-12-04T03:02:24.047Z,0.80
2017-12-04T03:04:53.250Z,0.80
2017-12-04T03:07:21.519Z,0.80
2017-12-04T03:09:49.811Z,0.90
2017-12-04T03:12:17.681Z,0.80
2017-12-04T03:14:46.495Z,0.80
2017-12-04T03:17:14.341Z,0.80
2017-12-04T03:19:43.827Z,0.90
2017-12-04T03:22:12.585Z,1.00
2017-12-04T03:24:41.121Z,0.90
2017-12-04T03:27:11.064Z,0.90
2017-12-04T03:29:39.382Z,0.80
2017-12-04T03:32:07.338Z,0.80
2017-12-04T03:34:35.382Z,0.80
2017-12-04T03:37:03.488Z,0.70
2017-12-04T03:39:31.072Z,0.80
2017-12-04T03:41:58.582Z,0.80
2017-12-04T03:44:26.087Z,0.70
2017-12-04T03:46:53.665Z,0.70
2017-12-04T03:49:21.544Z,0.80
2017-12-04T03:51:49.503Z,0.80
2017-12-04T03:54:17.978Z,0.70
2017-12-04T03:56:46.068Z,0.60
2017-12-04T03:59:13.852Z,0.70
2017-12-04T04:01:41.468Z,0.70
2017-12-04T04:04:08.979Z,0.70
2017-12-04T04:06:36.847Z,0.70
2017-12-04T04:09:04.538Z,0.70
2017-12-04T04:11:32.131Z,0.60
2017-12-04T04:13:59.666Z,0.60
2017-12-04T04:16:27.171Z,0.60
2017-12-04T04:18:54.710Z,0.60
2017-12-04T04:21:22.268Z,0.60
2017-12-04T04:23:49.779Z,0.70
2017-12-04T04:26:17.287Z,0.70
2017-12-04T04:28:44.831Z,0.70
2017-12-04T04:31:12.335Z,0.70
2017-12-04T04:33:39.858Z,0.60
2017-12-04T04:36:07.767Z,0.70
2017-12-04T04:38:35.270Z,0.70
2017-12-04T04:41:02.809Z,0.50
2017-12-04T04:43:31.057Z,0.60
2017-12-04T04:45:58.563Z,0.60
2017-12-04T04:48:26.076Z,0.70
2017-12-04T04:50:54.090Z,0.70
2017-12-04T04:53:21.596Z,0.70
2017-12-04T04:55:49.335Z,0.80
2017-12-04T04:58:17.062Z,0.90
2017-12-04T05:00:44.667Z,0.80
2017-12-04T05:03:12.179Z,0.80
2017-12-04T05:05:39.735Z,0.80
2017-12-04T05:08:07.250Z,0.70
2017-12-04T05:10:34.799Z,0.80
2017-12-04T05:13:02.363Z,0.90
2017-12-04T05:15:29.907Z,0.90
2017-12-04T05:17:57.415Z,0.90
2017-12-04T05:20:24.922Z,0.90
2017-12-04T05:22:52.507Z,0.90
2017-12-04T05:25:20.794Z,1.00
2017-12-04T05:27:49.071Z,1.00
2017-12-04T05:30:17.406Z,0.90
2017-12-04T05:32:45.486Z,0.90
2017-12-04T05:35:12.999Z,0.80
2017-12-04T05:37:40.586Z,0.80
2017-12-04T05:40:08.554Z,0.80
2017-12-04T05:42:36.067Z,0.70
2017-12-04T05:45:03.611Z,0.80
2017-12-04T05:47:31.116Z,0.80
2017-12-04T05:49:58.679Z,0.80
2017-12-04T05:52:26.182Z,0.90
2017-12-04T05:54:53.692Z,0.90
2017-12-04T05:57:21.560Z,0.90
2017-12-04T05:59:49.074Z,0.90
2017-12-04T06:02:16.588Z,0.90
2017-12-04T06:04:44.150Z,1.00
2017-12-04T06:07:12.219Z,1.00
2017-12-04T06:09:39.733Z,1.00
2017-12-04T06:12:07.857Z,1.00
2017-12-04T06:14:35.370Z,1.00
2017-12-04T06:17:03.795Z,1.00
2017-12-04T06:19:31.306Z,1.10
2017-12-04T06:21:59.641Z,1.00
2017-12-04T06:24:27.320Z,1.00
2017-12-04T06:26:55.086Z,1.00
2017-12-04T06:29:22.590Z,0.90
2017-12-04T06:31:50.155Z,1.00
2017-12-04T06:34:17.662Z,1.00
2017-12-04T06:36:45.171Z,1.00
2017-12-04T06:39:12.731Z,1.00
2017-12-04T06:41:40.790Z,0.90
2017-12-04T06:44:08.302Z,0.90
2017-12-04T06:46:35.963Z,1.00
2017-12-04T06:49:03.482Z,1.00
2017-12-04T06:51:31.958Z,1.00
2017-12-04T06:53:59.544Z,0.90
2017-12-04T06:56:27.066Z,0.90
2017-12-04T06:58:54.581Z,0.90
2017-12-04T07:01:22.146Z,0.90
2017-12-04T07:03:49.663Z,0.90
2017-12-04T07:06:17.339Z,1.00
2017-12-04T07:08:44.871Z,1.00
2017-12-04T07:11:13.163Z,1.00
2017-12-04T07:13:40.722Z,1.00
2017-12-04T07:16:08.395Z,1.00
2017-12-04T07:18:35.911Z,1.00
2017-12-04T07:21:04.122Z,0.90
2017-12-04T07:23:31.750Z,0.80
2017-12-04T07:25:59.406Z,0.80
2017-12-04T07:28:27.047Z,0.90
2017-12-04T07:30:56.079Z,0.90
2017-12-04T07:33:23.597Z,0.90
2017-12-04T07:35:51.138Z,0.90
2017-12-04T07:38:18.652Z,0.90
2017-12-04T07:40:46.172Z,0.90
2017-12-04T07:43:13.719Z,0.80
2017-12-04T07:45:41.233Z,0.80
2017-12-04T07:48:08.750Z,0.80
2017-12-04T07:50:36.292Z,0.80
2017-12-04T07:53:03.803Z,0.80
2017-12-04T07:55:31.319Z,0.90
2017-12-04T07:57:59.035Z,1.00
2017-12-04T08:00:27.414Z,1.00
2017-12-04T08:02:54.742Z,1.10
2017-12-04T08:05:22.871Z,1.10
2017-12-04T08:07:50.138Z,1.10
2017-12-04T08:10:17.662Z,1.20
2017-12-04T08:12:45.219Z,1.30
2017-12-04T08:15:13.088Z,1.30
2017-12-04T08:17:40.598Z,1.30
2017-12-04T08:20:08.190Z,1.40
2017-12-04T08:22:35.686Z,1.50
2017-12-04T08:25:03.204Z,1.50
2017-12-04T08:27:30.763Z,1.60
2017-12-04T08:29:58.280Z,1.70
2017-12-04T08:32:26.162Z,1.70
2017-12-04T08:34:53.819Z,1.70
2017-12-04T08:37:21.987Z,1.70
2017-12-04T08:39:49.674Z,1.80
2017-12-04T08:42:17.266Z,1.80
2017-12-04T08:44:44.779Z,1.80
2017-12-04T08:47:12.430Z,1.90
2017-12-04T08:49:39.962Z,1.80
2017-12-04T08:52:07.471Z,1.90
2017-12-04T08:54:34.978Z,1.80
2017-12-04T08:57:02.999Z,1.90
2017-12-04T08:59:30.511Z,1.90
2017-12-04T09:01:58.022Z,1.90
2017-12-04T09:04:25.591Z,2.00
2017-12-04T09:06:53.103Z,2.10
2017-12-04T09:09:20.606Z,2.10
2017-12-04T09:11:47.925Z,2.10
2017-12-04T09:14:15.434Z,2.10
2017-12-04T09:16:42.938Z,2.20
2017-12-04T09:19:10.503Z,2.30
2017-12-04T09:21:38.149Z,2.30
2017-12-04T09:24:05.704Z,2.40
2017-12-04T09:26:33.240Z,2.40
2017-12-04T09:29:00.803Z,2.40
2017-12-04T09:31:28.314Z,2.20
2017-12-04T09:33:55.815Z,2.20
2017-12-04T09:36:23.371Z,2.10
2017-12-04T09:38:50.890Z,2.20
2017-12-04T09:41:18.411Z,2.20
2017-12-04T09:43:45.975Z,2.30
2017-12-04T09:46:13.483Z,2.30
2017-12-04T09:48:40.986Z,2.40
2017-12-04T09:51:08.550Z,2.40
2017-12-04T09:53:36.063Z,2.30
2017-12-04T09:56:03.337Z,2.30
2017-12-04T09:58:30.915Z,2.40
2017-12-04T10:00:58.422Z,2.40
2017-12-04T10:03:25.951Z,2.50
2017-12-04T10:05:53.503Z,2.40
2017-12-04T10:08:21.016Z,2.30
2017-12-04T10:10:48.535Z,2.40
2017-12-04T10:13:16.139Z,2.30
2017-12-04T10:15:43.638Z,2.30
2017-12-04T10:18:11.152Z,2.30
2017-12-04T10:20:38.817Z,2.40
2017-12-04T10:23:06.676Z,2.30
2017-12-04T10:25:34.310Z,2.30
2017-12-04T10:28:01.816Z,2.30
2017-12-04T10:30:29.649Z,2.30
2017-12-04T10:32:57.927Z,2.50
2017-12-04T10:35:26.214Z,2.60
2017-12-04T10:37:54.534Z,2.60
2017-12-04T10:40:22.047Z,2.60
2017-12-04T10:42:49.556Z,2.70
2017-12-04T10:45:17.103Z,2.60
2017-12-04T10:47:44.607Z,2.70
2017-12-04T10:50:12.164Z,2.70
2017-12-04T10:52:39.734Z,2.70
2017-12-04T10:55:07.247Z,2.70
2017-12-04T10:57:34.763Z,2.70
2017-12-04T11:00:02.318Z,2.60
2017-12-04T11:02:29.875Z,2.60
2017-12-04T11:04:58.179Z,2.60
2017-12-04T11:07:25.663Z,2.50
2017-12-04T11:09:53.166Z,2.70
2017-12-04T11:12:20.684Z,2.50
2017-12-04T11:14:49.259Z,2.60
2017-12-04T11:17:16.772Z,2.40
2017-12-04T11:19:44.278Z,2.30
2017-12-04T11:22:12.771Z,2.40
2017-12-04T11:24:40.314Z,2.50
2017-12-04T11:27:07.822Z,2.60
2017-12-04T11:29:35.334Z,2.60
2017-12-04T11:32:02.906Z,2.70
2017-12-04T11:34:30.417Z,2.70
2017-12-04T11:36:57.929Z,2.60
2017-12-04T11:39:25.489Z,2.60
2017-12-04T11:41:53.019Z,2.70
2017-12-04T11:44:20.537Z,2.80
2017-12-04T11:46:48.110Z,2.90
2017-12-04T11:49:15.738Z,2.90
2017-12-04T11:51:43.354Z,3.00
2017-12-04T11:54:10.896Z,3.00
2017-12-04T11:56:38.411Z,3.00
2017-12-04T11:59:05.923Z,3.00
2017-12-04T12:01:33.495Z,2.90
2017-12-04T12:04:01.015Z,3.00
2017-12-04T12:06:28.527Z,2.80
2017-12-04T12:08:56.087Z,2.80
2017-12-04T12:11:23.595Z,2.60
2017-12-04T12:13:51.103Z,2.50
2017-12-04T12:16:18.666Z,2.50
2017-12-04T12:18:46.171Z,2.60
2017-12-04T12:21:13.683Z,2.50
2017-12-04T12:23:41.251Z,2.40
2017-12-04T12:26:08.754Z,2.40
2017-12-04T12:28:36.269Z,2.50
2017-12-04T12:31:04.198Z,2.50
2017-12-04T12:33:31.800Z,2.40
2017-12-04T12:35:59.305Z,2.40
2017-12-04T12:38:26.859Z,2.50
2017-12-04T12:40:54.373Z,2.50
2017-12-04T12:43:21.877Z,2.60
2017-12-04T12:45:49.442Z,2.80
2017-12-04T12:48:16.967Z,2.90
2017-12-04T12:50:44.467Z,2.90
2017-12-04T12:53:12.047Z,2.90
2017-12-04T12:55:39.586Z,2.90
2017-12-04T12:58:07.095Z,2.90
2017-12-04T13:00:34.671Z,2.90
2017-12-04T13:03:02.180Z,2.90
2017-12-04T13:05:29.682Z,3.00
2017-12-04T13:07:57.262Z,3.00
2017-12-04T13:10:24.768Z,3.00
2017-12-04T13:12:52.291Z,3.10
2017-12-04T13:15:20.615Z,2.90
2017-12-04T13:17:48.226Z,2.90
2017-12-04T13:20:15.739Z,2.90
2017-12-04T13:22:43.755Z,2.70
2017-12-04T13:25:12.030Z,2.80
2017-12-04T13:27:39.294Z,2.80
2017-12-04T13:30:06.868Z,2.70
2017-12-04T13:32:46.098Z,2.80
2017-12-04T13:35:25.471Z,2.70
2017-12-04T13:37:53.046Z,2.70
2017-12-04T13:40:20.552Z,2.80
2017-12-04T13:42:48.089Z,2.70
2017-12-04T13:45:15.602Z,2.70
2017-12-04T13:47:43.640Z,2.70
2017-12-04T13:50:11.155Z,2.70
2017-12-04T13:52:38.656Z,2.70
2017-12-04T13:55:06.429Z,2.80
2017-12-04T13:57:33.943Z,2.80
2017-12-04T14:00:02.219Z,2.70
2017-12-04T14:02:30.555Z,2.70
2017-12-04T14:04:58.066Z,2.70
2017-12-04T14:07:25.584Z,2.70
2017-12-04T14:09:53.147Z,2.60
2017-12-04T14:12:20.720Z,2.70
2017-12-04T14:14:48.230Z,2.70
2017-12-04T14:17:15.786Z,2.80
2017-12-04T14:19:43.296Z,2.70
2017-12-04T14:22:10.811Z,2.70
2017-12-04T14:24:38.362Z,2.70
2017-12-04T14:27:05.861Z,2.60
2017-12-04T14:29:33.367Z,2.70
2017-12-04T14:32:00.934Z,2.70
2017-12-04T14:34:28.619Z,2.60
2017-12-04T14:36:57.442Z,2.60
2017-12-04T14:39:25.828Z,2.60
2017-12-04T14:41:54.750Z,2.60
2017-12-04T14:44:22.259Z,2.60
2017-12-04T14:46:49.827Z,2.60
2017-12-04T14:49:17.330Z,2.60
2017-12-04T14:51:44.951Z,2.50
2017-12-04T14:54:12.491Z,2.60
2017-12-04T14:56:40.008Z,2.60
2017-12-04T14:59:07.530Z,2.60
2017-12-04T15:01:35.093Z,2.60
2017-12-04T15:04:02.616Z,2.60
2017-12-04T15:06:30.127Z,2.60
2017-12-04T15:08:58.466Z,2.50
2017-12-04T15:11:25.963Z,2.50
2017-12-04T15:13:53.489Z,2.50
2017-12-04T15:16:21.056Z,2.50
2017-12-04T15:18:48.565Z,2.60
2017-12-04T15:21:16.066Z,2.60
2017-12-04T15:23:43.592Z,2.60
2017-12-04T15:26:11.090Z,2.50
2017-12-04T15:28:38.595Z,2.60
2017-12-04T15:31:06.154Z,2.60
2017-12-04T15:33:33.662Z,2.70
2017-12-04T15:36:01.107Z,2.70
2017-12-04T15:38:28.776Z,2.70
2017-12-04T15:40:56.359Z,2.60
2017-12-04T15:43:23.995Z,2.60
2017-12-04T15:45:51.355Z,2.60
2017-12-04T15:48:18.923Z,2.60
2017-12-04T15:50:46.495Z,2.60
2017-12-04T15:53:14.010Z,2.70
2017-12-04T15:55:41.691Z,2.70
2017-12-04T15:58:09.263Z,2.80
2017-12-04T16:00:36.780Z,2.70
2017-12-04T16:03:04.357Z,2.70
2017-12-04T16:05:31.859Z,2.70
2017-12-04T16:07:59.355Z,2.80
2017-12-04T16:10:26.870Z,2.80
2017-12-04T16:12:54.430Z,2.70
2017-12-04T16:15:21.942Z,2.80
2017-12-04T16:17:49.444Z,2.80
2017-12-04T16:20:17.291Z,2.90
2017-12-04T16:22:44.805Z,2.90
2017-12-04T16:25:12.318Z,3.00
2017-12-04T16:27:41.670Z,3.10
2017-12-04T16:30:09.174Z,3.10
2017-12-04T16:32:36.686Z,3.10
2017-12-04T16:35:04.354Z,3.10
2017-12-04T16:37:32.679Z,3.00
2017-12-04T16:40:00.538Z,3.00
2017-12-04T16:42:28.115Z,3.10
2017-12-04T16:44:55.464Z,3.10
2017-12-04T16:47:23.733Z,3.10
2017-12-04T16:49:51.481Z,3.10
2017-12-04T16:52:19.236Z,3.00
2017-12-04T16:54:46.747Z,3.00
2017-12-04T16:57:14.261Z,3.10
2017-12-04T16:59:41.579Z,3.10
2017-12-04T17:02:09.091Z,3.10
2017-12-04T17:04:36.678Z,3.20
2017-12-04T17:07:04.939Z,3.00
2017-12-04T17:09:32.443Z,3.00
2017-12-04T17:11:59.975Z,2.90
2017-12-04T17:14:27.674Z,2.80
2017-12-04T17:16:55.298Z,3.00
2017-12-04T17:19:22.827Z,2.90
2017-12-04T17:21:50.338Z,3.00
2017-12-04T17:24:17.904Z,3.00
2017-12-04T17:26:45.413Z,3.00
2017-12-04T17:29:12.923Z,2.90
2017-12-04T17:31:40.502Z,2.90
2017-12-04T17:34:08.014Z,3.00
2017-12-04T17:36:36.286Z,2.90
2017-12-04T17:39:04.611Z,2.80
2017-12-04T17:41:32.116Z,2.80
2017-12-04T17:43:59.633Z,2.80
2017-12-04T17:46:27.627Z,2.80
2017-12-04T17:48:55.128Z,2.80
2017-12-04T17:51:22.846Z,2.80
2017-12-04T17:53:50.751Z,2.90
2017-12-04T17:56:19.018Z,2.90
2017-12-04T17:58:47.290Z,2.90
2017-12-04T18:01:15.622Z,2.80
2017-12-04T18:03:43.122Z,2.80
2017-12-04T18:06:10.627Z,2.80
2017-12-04T18:08:38.177Z,2.80
2017-12-04T18:11:05.710Z,2.70
2017-12-04T18:13:33.253Z,2.80
2017-12-04T18:16:00.803Z,2.80
2017-12-04T18:18:28.066Z,2.80
2017-12-04T18:20:55.583Z,2.90
2017-12-04T18:23:23.151Z,2.80
2017-12-04T18:25:50.850Z,2.90
2017-12-04T18:28:18.427Z,2.90
2017-12-04T18:30:46.787Z,3.10
2017-12-04T18:33:14.299Z,3.10
2017-12-04T18:35:41.807Z,3.10
2017-12-04T18:38:09.387Z,3.10
2017-12-04T18:40:36.914Z,3.10
2017-12-04T18:43:04.418Z,3.20
2017-12-04T18:45:32.021Z,3.30
2017-12-04T18:48:00.004Z,3.30
2017-12-04T18:50:28.264Z,3.30
2017-12-04T18:52:56.005Z,3.40
2017-12-04T18:55:23.523Z,3.40
2017-12-04T18:57:51.286Z,3.30
2017-12-04T19:00:19.720Z,3.30
2017-12-04T19:02:47.261Z,3.30
2017-12-04T19:05:14.785Z,3.40
2017-12-04T19:07:42.412Z,3.30
2017-12-04T19:10:09.932Z,3.30
2017-12-04T19:12:37.692Z,3.30
2017-12-04T19:15:05.246Z,3.30
2017-12-04T19:17:32.794Z,3.40
2017-12-04T19:20:00.309Z,3.40
2017-12-04T19:22:27.928Z,3.30
2017-12-04T19:24:55.503Z,3.40
2017-12-04T19:27:23.059Z,3.40
2017-12-04T19:29:50.639Z,3.40
2017-12-04T19:32:19.160Z,3.40
2017-12-04T19:34:47.401Z,3.30
2017-12-04T19:37:14.951Z,3.30
2017-12-04T19:39:43.342Z,3.30
2017-12-04T19:42:11.243Z,3.30
2017-12-04T19:44:38.804Z,3.30
2017-12-04T19:47:07.127Z,3.20
2017-12-04T19:49:34.910Z,3.20
2017-12-04T19:52:02.819Z,3.20
2017-12-04T19:54:31.202Z,3.20
2017-12-04T19:56:58.724Z,3.20
2017-12-04T19:59:26.273Z,3.20
2017-12-04T20:01:53.991Z,3.20
2017-12-04T20:04:21.560Z,3.20
2017-12-04T20:06:49.109Z,3.20
2017-12-04T20:09:16.683Z,3.20
2017-12-04T20:11:44.227Z,3.20
2017-12-04T20:14:12.548Z,3.20
2017-12-04T20:16:40.183Z,3.20
2017-12-04T20:19:08.314Z,3.20
2017-12-04T20:21:36.131Z,3.30
2017-12-04T20:24:03.938Z,3.30
2017-12-04T20:26:31.471Z,3.30
2017-12-04T20:28:59.193Z,3.30
2017-12-04T20:31:26.791Z,3.30
2017-12-04T20:33:54.346Z,3.30
2017-12-04T20:36:21.853Z,3.30
2017-12-04T20:38:49.386Z,3.30
2017-12-04T20:41:16.935Z,3.30
2017-12-04T20:43:44.447Z,3.30
2017-12-04T20:46:11.961Z,3.30
2017-12-04T20:48:39.519Z,3.30
2017-12-04T20:51:07.049Z,3.20
2017-12-04T20:53:34.571Z,3.30
2017-12-04T20:56:02.993Z,3.30
2017-12-04T20:58:30.511Z,3.30
2017-12-04T21:00:57.950Z,3.40
2017-12-04T21:03:25.539Z,3.40
2017-12-04T21:05:53.047Z,3.40
2017-12-04T21:08:26.867Z,3.40
2017-12-04T21:11:06.183Z,3.40
2017-12-04T21:13:45.606Z,3.30
2017-12-04T21:16:24.874Z,3.20
2017-12-04T21:18:52.778Z,3.20
2017-12-04T21:21:20.679Z,3.30
2017-12-04T21:23:48.927Z,3.20
2017-12-04T21:26:17.636Z,3.20
2017-12-04T21:28:45.397Z,3.20
2017-12-04T21:31:12.909Z,3.20
2017-12-04T21:33:41.587Z,3.10
2017-12-04T21:36:09.538Z,3.10
2017-12-04T21:38:37.055Z,3.20
2017-12-04T21:41:05.526Z,3.20
2017-12-04T21:43:33.078Z,3.20
2017-12-04T21:46:01.359Z,3.30
2017-12-04T21:48:29.592Z,3.30
2017-12-04T21:50:57.107Z,3.20
2017-12-04T21:53:24.614Z,3.10
2017-12-04T21:55:52.643Z,3.10
2017-12-04T21:58:20.215Z,3.10
2017-12-04T22:00:48.347Z,3.10
2017-12-04T22:03:16.866Z,3.10
2017-12-04T22:05:44.451Z,3.10
2017-12-04T22:08:12.007Z,3.10
2017-12-04T22:10:39.579Z,3.20
2017-12-04T22:13:07.082Z,3.20
2017-12-04T22:15:34.591Z,3.10
2017-12-04T22:18:02.159Z,3.10
2017-12-04T22:20:29.659Z,3.20
2017-12-04T22:22:57.175Z,3.20
2017-12-04T22:25:25.123Z,3.30
2017-12-04T22:27:53.130Z,3.30
2017-12-04T22:30:20.635Z,3.30
2017-12-04T22:32:48.299Z,3.30
2017-12-04T22:35:16.354Z,3.20
2017-12-04T22:37:43.887Z,3.20
2017-12-04T22:40:12.219Z,3.20
2017-12-04T22:42:40.319Z,3.20
2017-12-04T22:45:07.836Z,3.20
2017-12-04T22:47:35.489Z,3.30
2017-12-04T22:50:03.564Z,3.30
2017-12-04T22:52:31.100Z,3.30
2017-12-04T22:54:59.510Z,3.10
2017-12-04T22:57:27.006Z,3.20
2017-12-04T22:59:54.510Z,3.20
2017-12-04T23:02:22.339Z,3.20
2017-12-04T23:04:50.416Z,3.30
2017-12-04T23:07:17.918Z,3.30
2017-12-04T23:09:45.488Z,3.20
2017-12-04T23:12:12.991Z,3.10
2017-12-04T23:14:40.490Z,3.10
2017-12-04T23:17:08.050Z,3.20
2017-12-04T23:19:35.550Z,3.20
2017-12-04T23:22:03.059Z,3.20
2017-12-04T23:24:30.623Z,3.30
2017-12-04T23:26:58.187Z,3.20
2017-12-04T23:29:25.690Z,3.30
2017-12-04T23:31:53.262Z,3.30
2017-12-04T23:34:20.775Z,3.30
2017-12-04T23:36:48.338Z,3.30
2017-12-04T23:39:15.906Z,3.20
2017-12-04T23:41:43.410Z,3.20
2017-12-04T23:44:10.915Z,3.20
2017-12-04T23:46:38.461Z,3.40
2017-12-04T23:49:05.983Z,3.40
2017-12-04T23:51:33.511Z,3.40
2017-12-04T23:54:01.051Z,3.50
2017-12-04T23:56:29.331Z,3.40
2017-12-04T23:58:57.619Z,3.50
